createdAt,value
2023-04-10T00:01:44.482Z,5.58
2023-04-10T00:04:11.161Z,5.53
2023-04-10T00:06:37.668Z,5.49
2023-04-10T00:09:04.073Z,5.46
2023-04-10T00:11:30.497Z,5.44
2023-04-10T00:13:56.924Z,5.49
2023-04-10T00:16:23.388Z,5.54
2023-04-10T00:18:49.934Z,5.59
2023-04-10T00:21:17.364Z,5.60
2023-04-10T00:23:43.838Z,5.63
2023-04-10T00:26:10.431Z,5.63
2023-04-10T00:28:38.085Z,5.60
2023-04-10T00:31:05.323Z,5.60
2023-04-10T00:33:31.751Z,5.60
2023-04-10T00:35:58.292Z,5.58
2023-04-10T00:38:24.763Z,5.60
2023-04-10T00:40:51.155Z,5.61
2023-04-10T00:43:20.147Z,5.61
2023-04-10T00:45:47.406Z,5.59
2023-04-10T00:48:15.703Z,5.58
2023-04-10T00:50:43.292Z,5.55
2023-04-10T00:53:09.704Z,5.49
2023-04-10T00:55:36.925Z,5.45
2023-04-10T00:58:03.765Z,5.42
2023-04-10T01:00:30.842Z,5.38
2023-04-10T01:02:57.632Z,5.35
2023-04-10T01:05:26.124Z,5.37
2023-04-10T01:08:19.163Z,5.34
2023-04-10T01:10:58.642Z,5.32
2023-04-10T01:13:34.758Z,5.35
2023-04-10T01:16:24.768Z,5.35
2023-04-10T01:19:03.734Z,5.34
2023-04-10T01:21:33.397Z,5.32
2023-04-10T01:24:17.372Z,5.32
2023-04-10T01:27:06.035Z,5.30
2023-04-10T01:29:36.196Z,5.28
2023-04-10T01:32:08.358Z,5.30
2023-04-10T01:34:48.083Z,5.30
2023-04-10T01:37:27.922Z,5.30
2023-04-10T01:40:00.329Z,5.27
2023-04-10T01:42:30.739Z,5.26
2023-04-10T01:44:59.164Z,5.21
2023-04-10T01:47:27.812Z,5.19
2023-04-10T01:49:55.754Z,5.19
2023-04-10T01:52:24.311Z,5.17
2023-04-10T01:55:02.282Z,5.18
2023-04-10T01:57:37.622Z,5.14
2023-04-10T02:00:04.724Z,5.06
2023-04-10T02:02:42.880Z,5.03
2023-04-10T02:05:13.636Z,5.01
2023-04-10T02:07:46.343Z,5.02
2023-04-10T02:10:21.427Z,4.99
2023-04-10T02:13:03.727Z,4.95
2023-04-10T02:15:32.591Z,4.94
2023-04-10T02:18:00.779Z,4.95
2023-04-10T02:20:27.614Z,4.96
2023-04-10T02:22:54.259Z,4.96
2023-04-10T02:25:20.830Z,4.96
2023-04-10T02:27:48.653Z,4.97
2023-04-10T02:30:15.310Z,4.97
2023-04-10T02:32:42.991Z,4.97
2023-04-10T02:35:09.514Z,4.97
2023-04-10T02:37:37.246Z,4.97
2023-04-10T02:40:04.310Z,4.92
2023-04-10T02:42:38.858Z,4.95
2023-04-10T02:45:06.334Z,4.92
2023-04-10T02:47:37.784Z,4.92
2023-04-10T02:50:04.582Z,4.91
2023-04-10T02:52:35.330Z,4.88
2023-04-10T02:55:01.794Z,4.85
2023-04-10T02:57:34.532Z,4.71
2023-04-10T03:00:00.949Z,4.61
2023-04-10T03:02:32.112Z,4.54
2023-04-10T03:05:04.837Z,4.45
2023-04-10T03:07:32.189Z,4.39
2023-04-10T03:09:58.758Z,4.37
2023-04-10T03:12:25.336Z,4.35
2023-04-10T03:14:52.423Z,4.34
2023-04-10T03:17:18.791Z,4.36
2023-04-10T03:19:46.120Z,4.38
2023-04-10T03:22:12.560Z,4.39
2023-04-10T03:24:41.012Z,4.35
2023-04-10T03:27:07.433Z,4.37
2023-04-10T03:29:33.855Z,4.34
2023-04-10T03:32:00.418Z,4.32
2023-04-10T03:34:26.971Z,4.31
2023-04-10T03:36:53.353Z,4.29
2023-04-10T03:39:19.746Z,4.28
2023-04-10T03:41:46.773Z,4.27
2023-04-10T03:44:13.533Z,4.22
2023-04-10T03:46:40.361Z,4.17
2023-04-10T03:49:08.085Z,4.09
2023-04-10T03:51:34.488Z,4.07
2023-04-10T03:54:01.217Z,4.05
2023-04-10T03:56:28.250Z,4.05
2023-04-10T03:58:54.692Z,4.02
2023-04-10T04:01:22.247Z,4.04
2023-04-10T04:04:10.345Z,4.08
2023-04-10T04:06:59.423Z,4.12
2023-04-10T04:09:42.645Z,4.14
2023-04-10T04:12:27.785Z,4.15
2023-04-10T04:15:23.875Z,4.14
2023-04-10T04:17:58.734Z,4.10
2023-04-10T04:20:36.535Z,4.06
2023-04-10T04:23:25.680Z,4.02
2023-04-10T04:25:56.824Z,4.01
2023-04-10T04:28:47.284Z,4.01
2023-04-10T04:31:21.355Z,4.00
2023-04-10T04:34:06.241Z,4.00
2023-04-10T04:36:49.716Z,3.98
2023-04-10T04:39:34.823Z,3.97
2023-04-10T04:42:10.266Z,3.96
2023-04-10T04:44:48.863Z,3.98
2023-04-10T04:47:34.098Z,3.96
2023-04-10T04:50:08.494Z,3.96
2023-04-10T04:52:53.214Z,3.95
2023-04-10T04:55:39.896Z,3.94
2023-04-10T04:58:29.185Z,3.94
2023-04-10T05:01:12.686Z,3.92
2023-04-10T05:04:11.782Z,3.91
2023-04-10T05:06:53.466Z,3.90
2023-04-10T05:09:43.220Z,3.91
2023-04-10T05:12:29.931Z,3.95
2023-04-10T05:15:07.936Z,3.99
2023-04-10T05:17:53.989Z,3.99
2023-04-10T05:20:42.128Z,4.07
2023-04-10T05:23:36.273Z,4.11
2023-04-10T05:26:21.510Z,4.13
2023-04-10T05:29:07.078Z,4.22
2023-04-10T05:31:46.656Z,4.32
2023-04-10T05:34:36.872Z,4.35
2023-04-10T05:37:13.068Z,4.46
2023-04-10T05:39:55.651Z,4.55
2023-04-10T05:42:35.387Z,4.63
2023-04-10T05:45:15.037Z,4.67
2023-04-10T05:48:10.182Z,4.67
2023-04-10T05:50:56.929Z,4.68
2023-04-10T05:53:35.143Z,4.76
2023-04-10T05:56:02.196Z,4.82
2023-04-10T05:59:07.246Z,4.86
2023-04-10T06:01:57.172Z,4.90
2023-04-10T06:04:24.314Z,4.93
2023-04-10T06:06:55.119Z,4.97
2023-04-10T06:09:21.565Z,5.04
2023-04-10T06:11:47.961Z,5.07
2023-04-10T06:14:19.099Z,5.11
2023-04-10T06:16:46.334Z,5.13
2023-04-10T06:19:12.804Z,5.18
2023-04-10T06:21:39.281Z,5.23
2023-04-10T06:24:06.491Z,5.24
2023-04-10T06:26:33.021Z,5.30
2023-04-10T06:29:00.327Z,5.36
2023-04-10T06:31:27.181Z,5.38
2023-04-10T06:33:54.414Z,5.34
2023-04-10T06:36:20.841Z,5.47
2023-04-10T06:38:54.962Z,5.56
2023-04-10T06:41:22.922Z,5.64
2023-04-10T06:43:54.018Z,5.70
2023-04-10T06:46:20.565Z,5.77
2023-04-10T06:48:47.054Z,5.85
2023-04-10T06:51:13.456Z,5.92
2023-04-10T06:53:39.887Z,6.05
2023-04-10T06:56:07.039Z,6.16
2023-04-10T06:58:33.473Z,6.25
2023-04-10T07:03:32.274Z,6.47
2023-04-10T07:05:58.735Z,6.60
2023-04-10T07:08:25.230Z,6.75
2023-04-10T07:10:51.780Z,6.84
2023-04-10T07:13:18.221Z,6.91
2023-04-10T07:15:44.656Z,7.04
2023-04-10T07:18:11.132Z,7.15
2023-04-10T07:20:38.134Z,7.31
2023-04-10T07:23:04.533Z,7.46
2023-04-10T07:25:30.958Z,7.59
2023-04-10T07:27:57.404Z,7.69
2023-04-10T07:30:23.812Z,7.79
2023-04-10T07:32:50.333Z,7.88
2023-04-10T07:35:16.954Z,7.95
2023-04-10T07:37:44.172Z,7.99
2023-04-10T07:40:10.972Z,8.00
2023-04-10T07:42:37.400Z,8.02
2023-04-10T07:45:04.049Z,8.00
2023-04-10T07:47:30.485Z,7.98
2023-04-10T07:49:56.979Z,7.98
2023-04-10T07:52:23.384Z,8.02
2023-04-10T07:54:49.860Z,8.05
2023-04-10T07:57:16.276Z,8.08
2023-04-10T07:59:42.717Z,8.15
2023-04-10T08:02:09.286Z,8.20
2023-04-10T08:04:36.342Z,8.32
2023-04-10T08:07:02.953Z,8.41
2023-04-10T08:09:29.391Z,8.49
2023-04-10T08:11:56.755Z,8.63
2023-04-10T08:14:23.155Z,8.73
2023-04-10T08:16:49.616Z,8.86
2023-04-10T08:19:16.046Z,9.01
2023-04-10T08:21:42.468Z,9.19
2023-04-10T08:24:08.934Z,9.29
2023-04-10T08:26:35.392Z,9.37
2023-04-10T08:29:02.070Z,9.39
2023-04-10T08:31:29.349Z,9.44
2023-04-10T08:33:56.557Z,9.48
2023-04-10T08:36:23.350Z,9.55
2023-04-10T08:38:49.892Z,9.59
2023-04-10T08:41:18.640Z,9.61
2023-04-10T08:43:46.190Z,9.63
2023-04-10T08:46:14.347Z,9.68
2023-04-10T08:48:48.246Z,9.71
2023-04-10T08:51:26.132Z,9.80
2023-04-10T08:53:58.398Z,9.86
2023-04-10T08:56:25.942Z,9.93
2023-04-10T08:58:53.035Z,10.01
2023-04-10T09:01:21.547Z,10.13
2023-04-10T09:03:48.367Z,10.28
2023-04-10T09:06:14.902Z,10.39
2023-04-10T09:08:41.449Z,10.58
2023-04-10T09:11:07.912Z,10.75
2023-04-10T09:13:39.468Z,10.94
2023-04-10T09:16:06.962Z,11.10
2023-04-10T09:18:45.686Z,11.28
2023-04-10T09:21:15.808Z,11.39
2023-04-10T09:23:44.521Z,11.49
2023-04-10T09:26:31.275Z,11.60
2023-04-10T09:29:06.352Z,11.75
2023-04-10T09:31:35.205Z,11.90
2023-04-10T09:34:28.991Z,12.05
2023-04-10T09:37:01.221Z,12.12
2023-04-10T09:39:42.938Z,12.16
2023-04-10T09:42:10.040Z,12.22
2023-04-10T09:44:38.573Z,12.24
2023-04-10T09:47:14.187Z,12.31
2023-04-10T09:49:46.337Z,12.39
2023-04-10T09:52:26.223Z,12.49
2023-04-10T09:54:58.268Z,12.63
2023-04-10T09:57:26.515Z,12.77
2023-04-10T10:00:00.771Z,12.90
2023-04-10T10:02:31.225Z,13.04
2023-04-10T10:05:00.982Z,13.11
2023-04-10T10:07:29.587Z,13.21
2023-04-10T10:09:56.772Z,13.33
2023-04-10T10:12:35.453Z,13.42
2023-04-10T10:15:05.498Z,13.48
2023-04-10T10:17:54.400Z,13.62
2023-04-10T10:20:23.792Z,13.77
2023-04-10T10:22:51.767Z,13.86
2023-04-10T10:25:20.342Z,13.92
2023-04-10T10:27:49.723Z,13.96
2023-04-10T10:30:29.278Z,14.12
2023-04-10T10:32:58.618Z,14.32
2023-04-10T10:35:28.733Z,14.44
2023-04-10T10:37:58.289Z,14.52
2023-04-10T10:40:49.638Z,14.63
2023-04-10T10:43:33.418Z,14.69
2023-04-10T10:46:43.200Z,14.87
2023-04-10T10:49:09.700Z,15.02
2023-04-10T10:51:50.499Z,15.16
2023-04-10T10:54:36.596Z,15.30
2023-04-10T10:57:44.013Z,15.46
2023-04-10T11:00:10.957Z,15.57
2023-04-10T11:02:37.428Z,15.69
2023-04-10T11:05:04.068Z,15.78
2023-04-10T11:08:07.290Z,15.80
2023-04-10T11:11:06.297Z,15.97
2023-04-10T11:13:34.403Z,16.14
2023-04-10T11:16:02.876Z,16.29
2023-04-10T11:18:44.503Z,16.34
2023-04-10T11:21:12.083Z,16.46
2023-04-10T11:23:59.292Z,16.53
2023-04-10T11:26:44.161Z,16.64
2023-04-10T11:29:17.151Z,16.74
2023-04-10T11:31:55.175Z,16.69
2023-04-10T11:34:21.805Z,16.77
2023-04-10T11:36:48.258Z,16.93
2023-04-10T11:39:18.660Z,17.09
2023-04-10T11:41:47.150Z,17.27
2023-04-10T11:44:26.942Z,17.38
2023-04-10T11:46:53.923Z,17.49
2023-04-10T11:49:23.816Z,17.43
2023-04-10T11:51:51.354Z,17.43
2023-04-10T11:54:25.987Z,17.39
2023-04-10T11:57:12.970Z,17.40
2023-04-10T11:59:39.430Z,17.49
2023-04-10T12:02:16.769Z,17.64
2023-04-10T12:04:44.186Z,17.86
2023-04-10T12:07:11.415Z,17.97
2023-04-10T12:09:37.937Z,18.06
2023-04-10T12:12:06.583Z,18.23
2023-04-10T12:14:40.614Z,18.23
2023-04-10T12:17:09.074Z,18.05
2023-04-10T12:19:36.560Z,18.07
2023-04-10T12:22:03.165Z,18.19
2023-04-10T12:24:46.770Z,18.63
2023-04-10T12:27:23.914Z,19.09
2023-04-10T12:29:52.995Z,19.01
2023-04-10T12:32:20.569Z,19.15
2023-04-10T12:34:58.394Z,19.34
2023-04-10T12:37:26.608Z,19.58
2023-04-10T12:39:53.094Z,19.64
2023-04-10T12:42:22.379Z,19.80
2023-04-10T12:45:01.879Z,19.73
2023-04-10T12:47:29.282Z,19.75
2023-04-10T12:50:12.488Z,19.96
2023-04-10T12:52:41.409Z,20.10
2023-04-10T12:55:19.794Z,20.15
2023-04-10T12:57:48.419Z,20.26
2023-04-10T13:00:17.322Z,20.27
2023-04-10T13:02:44.914Z,20.27
2023-04-10T13:05:12.150Z,20.34
2023-04-10T13:07:39.355Z,20.40
2023-04-10T13:10:07.316Z,20.36
2023-04-10T13:12:35.155Z,20.25
2023-04-10T13:15:02.755Z,20.32
2023-04-10T13:17:29.372Z,20.44
2023-04-10T13:19:55.880Z,20.52
2023-04-10T13:22:22.320Z,20.55
2023-04-10T13:24:48.752Z,20.53
2023-04-10T13:27:15.364Z,20.54
2023-04-10T13:29:42.859Z,20.54
2023-04-10T13:32:09.671Z,20.58
2023-04-10T13:34:36.232Z,20.51
2023-04-10T13:37:02.802Z,20.28
2023-04-10T13:39:31.185Z,20.33
2023-04-10T13:42:01.925Z,20.51
2023-04-10T13:44:28.429Z,20.63
2023-04-10T13:46:54.976Z,20.57
2023-04-10T13:49:22.138Z,20.44
2023-04-10T13:51:49.002Z,20.28
2023-04-10T13:54:17.264Z,20.11
2023-04-10T13:56:44.566Z,19.81
2023-04-10T13:59:11.159Z,19.55
2023-04-10T14:01:37.729Z,19.34
2023-04-10T14:04:04.286Z,19.37
2023-04-10T14:06:31.584Z,19.34
2023-04-10T14:08:58.233Z,19.27
2023-04-10T14:11:25.506Z,19.27
2023-04-10T14:13:51.918Z,19.15
2023-04-10T14:16:18.456Z,19.00
2023-04-10T14:18:44.834Z,18.93
2023-04-10T14:21:11.285Z,18.85
2023-04-10T14:23:37.769Z,18.77
2023-04-10T14:26:07.432Z,18.67
2023-04-10T14:28:34.247Z,18.60
2023-04-10T14:31:00.998Z,18.51
2023-04-10T14:33:28.238Z,18.57
2023-04-10T14:35:55.162Z,18.60
2023-04-10T14:38:21.616Z,18.64
2023-04-10T14:40:50.049Z,18.52
2023-04-10T14:43:17.274Z,18.39
2023-04-10T14:45:43.837Z,18.18
2023-04-10T14:48:11.088Z,18.12
2023-04-10T14:50:37.670Z,17.96
2023-04-10T14:53:05.962Z,17.80
2023-04-10T14:55:32.414Z,17.62
2023-04-10T14:57:59.059Z,17.46
2023-04-10T15:00:26.460Z,17.32
2023-04-10T15:02:53.035Z,17.24
2023-04-10T15:05:19.715Z,17.05
2023-04-10T15:07:46.154Z,16.85
2023-04-10T15:10:12.668Z,16.83
2023-04-10T15:12:39.164Z,16.88
2023-04-10T15:15:06.706Z,16.83
2023-04-10T15:17:33.172Z,16.81
2023-04-10T15:19:59.751Z,16.75
2023-04-10T15:22:26.677Z,16.75
2023-04-10T15:24:53.184Z,16.83
2023-04-10T15:27:21.147Z,16.89
2023-04-10T15:29:47.793Z,16.82
2023-04-10T15:32:14.239Z,16.76
2023-04-10T15:34:40.684Z,16.80
2023-04-10T15:37:07.130Z,16.80
2023-04-10T15:39:33.557Z,16.78
2023-04-10T15:42:00.304Z,16.82
2023-04-10T15:44:27.002Z,16.88
2023-04-10T15:46:53.507Z,16.90
2023-04-10T15:49:29.604Z,16.89
2023-04-10T15:52:03.926Z,16.79
2023-04-10T15:54:30.398Z,16.74
2023-04-10T15:56:57.372Z,16.69
2023-04-10T15:59:25.183Z,16.65
2023-04-10T16:01:51.774Z,16.64
2023-04-10T16:04:18.453Z,16.64
2023-04-10T16:06:44.950Z,16.60
2023-04-10T16:09:24.828Z,16.52
2023-04-10T16:11:53.377Z,16.46
2023-04-10T16:14:19.860Z,16.37
2023-04-10T16:16:46.445Z,16.28
2023-04-10T16:19:12.868Z,16.13
2023-04-10T16:21:39.503Z,16.03
2023-04-10T16:24:06.235Z,16.00
2023-04-10T16:26:32.624Z,15.93
2023-04-10T16:28:59.049Z,15.89
2023-04-10T16:31:25.480Z,15.82
2023-04-10T16:33:51.966Z,15.76
2023-04-10T16:36:18.368Z,15.67
2023-04-10T16:38:45.229Z,15.60
2023-04-10T16:41:12.421Z,15.51
2023-04-10T16:43:38.972Z,15.42
2023-04-10T16:46:05.801Z,15.31
2023-04-10T16:48:34.256Z,15.24
2023-04-10T16:51:06.025Z,15.18
2023-04-10T16:53:33.463Z,15.10
2023-04-10T16:56:02.138Z,15.01
2023-04-10T16:58:30.763Z,14.94
2023-04-10T17:00:57.351Z,14.87
2023-04-10T17:03:23.873Z,14.84
2023-04-10T17:05:50.352Z,14.82
2023-04-10T17:08:16.753Z,14.70
2023-04-10T17:10:43.192Z,14.74
2023-04-10T17:13:09.618Z,14.68
2023-04-10T17:15:36.261Z,14.59
2023-04-10T17:18:02.791Z,14.48
2023-04-10T17:20:30.794Z,14.38
2023-04-10T17:22:57.311Z,14.34
2023-04-10T17:25:23.709Z,14.26
2023-04-10T17:27:50.247Z,14.14
2023-04-10T17:30:16.666Z,14.06
2023-04-10T17:32:43.331Z,14.00
2023-04-10T17:35:09.841Z,13.95
2023-04-10T17:37:36.288Z,13.91
2023-04-10T17:40:03.020Z,13.88
2023-04-10T17:42:29.461Z,13.86
2023-04-10T17:44:55.873Z,13.82
2023-04-10T17:47:22.375Z,13.75
2023-04-10T17:49:48.875Z,13.70
2023-04-10T17:52:15.324Z,13.64
2023-04-10T17:54:41.723Z,13.55
2023-04-10T17:57:08.118Z,13.46
2023-04-10T17:59:34.535Z,13.40
2023-04-10T18:02:01.014Z,13.36
2023-04-10T18:04:27.499Z,13.31
2023-04-10T18:06:53.927Z,13.28
2023-04-10T18:09:20.524Z,13.24
2023-04-10T18:11:48.417Z,13.22
2023-04-10T18:14:14.866Z,13.18
2023-04-10T18:16:41.437Z,13.15
2023-04-10T18:19:07.993Z,13.11
2023-04-10T18:21:37.062Z,13.05
2023-04-10T18:24:03.803Z,13.02
2023-04-10T18:26:33.245Z,12.99
2023-04-10T18:29:01.156Z,12.94
2023-04-10T18:31:27.862Z,12.90
2023-04-10T18:34:06.452Z,12.87
2023-04-10T18:36:34.505Z,12.80
2023-04-10T18:39:00.933Z,12.79
2023-04-10T18:41:27.327Z,12.74
2023-04-10T18:44:01.631Z,12.74
2023-04-10T18:46:32.502Z,12.67
2023-04-10T18:49:00.765Z,12.67
2023-04-10T18:51:27.766Z,12.64
2023-04-10T18:53:54.469Z,12.66
2023-04-10T18:56:21.206Z,12.61
2023-04-10T18:58:49.656Z,12.61
2023-04-10T19:01:17.621Z,12.60
2023-04-10T19:03:45.447Z,12.59
2023-04-10T19:06:12.191Z,12.60
2023-04-10T19:08:38.608Z,12.59
2023-04-10T19:11:06.586Z,12.57
2023-04-10T19:13:33.659Z,12.51
2023-04-10T19:16:03.433Z,12.53
2023-04-10T19:18:29.899Z,12.52
2023-04-10T19:20:56.335Z,12.51
2023-04-10T19:23:26.141Z,12.48
2023-04-10T19:25:54.001Z,12.45
2023-04-10T19:28:21.262Z,12.46
2023-04-10T19:30:47.813Z,12.40
2023-04-10T19:33:14.374Z,12.41
2023-04-10T19:35:40.892Z,12.41
2023-04-10T19:38:07.330Z,12.39
2023-04-10T19:40:33.831Z,12.37
2023-04-10T19:43:01.821Z,12.35
2023-04-10T19:45:29.337Z,12.36
2023-04-10T19:47:56.528Z,12.35
2023-04-10T19:50:23.163Z,12.34
2023-04-10T19:52:49.666Z,12.34
2023-04-10T19:55:18.819Z,12.34
2023-04-10T19:57:45.851Z,12.33
2023-04-10T20:00:12.809Z,12.31
2023-04-10T20:02:40.050Z,12.29
2023-04-10T20:05:07.188Z,12.27
2023-04-10T20:07:33.644Z,12.22
2023-04-10T20:10:03.135Z,12.23
2023-04-10T20:12:32.940Z,12.22
2023-04-10T20:15:00.220Z,12.20
2023-04-10T20:17:27.333Z,12.19
2023-04-10T20:19:53.917Z,12.23
2023-04-10T20:22:20.311Z,12.23
2023-04-10T20:24:46.951Z,12.23
2023-04-10T20:27:15.301Z,12.21
2023-04-10T20:29:42.782Z,12.21
2023-04-10T20:32:09.636Z,12.23
2023-04-10T20:34:36.803Z,12.24
2023-04-10T20:37:03.557Z,12.26
2023-04-10T20:39:29.969Z,12.27
2023-04-10T20:41:57.219Z,12.25
2023-04-10T20:44:23.787Z,12.25
2023-04-10T20:46:50.797Z,12.26
2023-04-10T20:49:17.546Z,12.28
2023-04-10T20:51:44.177Z,12.28
2023-04-10T20:54:11.659Z,12.29
2023-04-10T20:56:43.239Z,12.31
2023-04-10T20:59:10.643Z,12.33
2023-04-10T21:01:37.271Z,12.36
2023-04-10T21:04:03.894Z,12.34
2023-04-10T21:06:33.109Z,12.34
2023-04-10T21:08:59.568Z,12.29
2023-04-10T21:11:27.129Z,12.31
2023-04-10T21:13:54.068Z,12.35
2023-04-10T21:16:20.582Z,12.34
2023-04-10T21:18:47.574Z,12.35
2023-04-10T21:21:14.267Z,12.35
2023-04-10T21:23:40.742Z,12.35
2023-04-10T21:26:07.428Z,12.35
2023-04-10T21:28:33.944Z,12.37
2023-04-10T21:31:00.419Z,12.37
2023-04-10T21:33:26.861Z,12.37
2023-04-10T21:35:53.306Z,12.34
2023-04-10T21:38:19.803Z,12.32
2023-04-10T21:40:55.516Z,12.33
2023-04-10T21:43:22.208Z,12.30
2023-04-10T21:45:49.025Z,12.29
2023-04-10T21:48:15.591Z,12.25
2023-04-10T21:50:42.228Z,12.24
2023-04-10T21:53:08.823Z,12.21
2023-04-10T21:55:35.430Z,12.21
2023-04-10T21:58:01.935Z,12.22
2023-04-10T22:00:28.749Z,12.22
2023-04-10T22:02:55.780Z,12.22
2023-04-10T22:05:24.182Z,12.21
2023-04-10T22:07:51.010Z,12.23
2023-04-10T22:10:17.637Z,12.22
2023-04-10T22:12:48.502Z,12.20
2023-04-10T22:15:15.515Z,12.18
2023-04-10T22:17:41.935Z,12.19
2023-04-10T22:20:08.850Z,12.16
2023-04-10T22:22:35.494Z,12.18
2023-04-10T22:25:01.896Z,12.17
2023-04-10T22:27:28.349Z,12.19
2023-04-10T22:30:03.158Z,12.21
2023-04-10T22:32:31.482Z,12.22
2023-04-10T22:35:00.780Z,12.25
2023-04-10T22:37:27.755Z,12.27
2023-04-10T22:39:56.017Z,12.28
2023-04-10T22:42:22.861Z,12.29
2023-04-10T22:44:49.265Z,12.28
2023-04-10T22:47:15.644Z,12.28
2023-04-10T22:49:42.296Z,12.26
2023-04-10T22:52:08.731Z,12.28
2023-04-10T22:54:35.238Z,12.23
2023-04-10T22:57:01.616Z,12.22
2023-04-10T22:59:28.068Z,12.23
2023-04-10T23:01:54.520Z,12.23
2023-04-10T23:04:21.223Z,12.20
2023-04-10T23:06:47.650Z,12.23
2023-04-10T23:09:14.090Z,12.25
2023-04-10T23:11:40.586Z,12.26
2023-04-10T23:14:07.141Z,12.27
2023-04-10T23:16:33.576Z,12.29
2023-04-10T23:19:00.113Z,12.28
2023-04-10T23:21:27.321Z,12.27
2023-04-10T23:23:53.835Z,12.28
2023-04-10T23:26:20.733Z,12.30
2023-04-10T23:28:47.531Z,12.31
2023-04-10T23:31:14.117Z,12.32
2023-04-10T23:33:40.517Z,12.30
2023-04-10T23:36:07.257Z,12.28
2023-04-10T23:38:33.662Z,12.27
2023-04-10T23:41:00.128Z,12.25
2023-04-10T23:43:26.543Z,12.23
2023-04-10T23:45:52.925Z,12.22
2023-04-10T23:48:19.390Z,12.18
2023-04-10T23:50:45.794Z,12.19
2023-04-10T23:53:14.456Z,12.18
2023-04-10T23:55:42.162Z,12.16
2023-04-10T23:58:08.925Z,12.18
